Rodrygo Alves

Recruteur - Nautico
9 Déc 2027
Jeudi
Processus

Personnalité

Adaptabilité (7) Ambition (11) Controverse (15) Loyauté (8) Pression (1) Professionnalisme (6) Sportivité (15) Tempérament (19)

Profil

Style d'entraînement Démocratique
Diplôme National A
Détermination 5
Gestion des joueurs 11
Motivation 12
Discipline 5
Satisfaction professionnelle
95%
Fatigue
0%
Rôle Recruteur
Salaire 57.9K p/s
Contrat 14.03.2029

Performance

Comportement Bon
Efficacité de l'entraînement
32%
Développement des joueurs
55%
Prévention des blessures
40%
Mise en place tactique
20%

Événements récents

A participé à une réunion de recrutement maintenant
A recommandé une cible de transfert maintenant
A recommandé une cible de transfert 7j
A recommandé une cible de transfert 7j
A participé à une réunion de recrutement 7j
A évalué un joueur 7j
A présenté un dossier au conseil 7j
A présenté un dossier au conseil 7j

Suivi en cours

137
Joueur Club Statut Capacité Confiance Observé Dernière observation Dernier vote
Gift Udoh Ikorodu City Actif 86 / 92 40% 9 30.11.2027 -
Nicolas Sport Recife Actif 107 / 105 40% 2 30.11.2027 -
Giovanni Leoni Bradford City Actif 153 / 159 40% 1 29.11.2027 -
Ronan Kpakio Cardiff City Actif 119 / 110 40% 1 29.11.2027 -
João Teixeira Porto Actif 102 / 123 40% 4 27.11.2027 -
Eduardo Felicíssimo Sporting CP Actif 105 / 116 40% 5 27.11.2027 -
Kauã Moraes Cruzeiro Actif 131 / 140 40% 4 25.11.2027 -
Juan Camilo Córdoba Deportivo Pereira Actif 84 / 79 40% 3 25.11.2027 -
Daniel Costa Sporting CP Actif 98 / 114 40% 3 23.11.2027 -
Matías Canedo Rampla Juniors Actif 77 / 84 40% 3 23.11.2027 -
Lucas Camejo River Plate Actif 82 / 85 40% 2 21.11.2027 -
Hosea Michael Remo Stars Actif 79 / 91 40% 3 19.11.2027 -
David Damboama El-Kanemi Warriors Actif 89 / 70 40% 8 19.11.2027 -
Gonçalo Oliveira Benfica Actif 121 / 111 40% 7 18.11.2027 -
Hervin Goyes Deportivo Pasto Actif 113 / 100 40% 4 18.11.2027 -
Luis Otávio Colorado Rapids Actif 117 / 122 40% 3 17.11.2027 -
Marvelous Freedom Ikorodu City Actif 95 / 85 40% 2 16.11.2027 -
Onuorah Onyedika Kun Khalifat Actif 65 / 108 40% 6 15.11.2027 -
Ignacio Fernández Boston River Actif 82 / 93 40% 2 15.11.2027 -
Godwin Oham Warri Wolves Actif 88 / 75 40% 6 13.11.2027 -
Tiago Gordillo San Miguel Actif 91 / 103 40% 2 13.11.2027 -
Olaniyi Saheed Kwara United Actif 111 / 90 40% 4 09.11.2027 -
Martim Cunha Porto Actif 120 / 98 40% 4 08.11.2027 -
Ricky Atletico Venezuela Actif 90 / 105 40% 4 08.11.2027 -
Joel Ezra Enyimba Actif 96 / 112 40% 5 06.11.2027 -
Daniel Banjaqui Benfica Actif 124 / 135 40% 2 05.11.2027 -
Mauro Carrizo Atlético Tucumán Actif 114 / 118 40% 2 01.11.2027 -
Mads Bomholt Stabaek Actif 97 / 93 40% 5 29.10.2027 -
Mikkel Hope Haugesund Actif 112 / 126 40% 5 27.10.2027 -
Jackson Imbiakha Muranga Seal Actif 61 / 87 40% 3 26.10.2027 -
David Asayure Lokomotivi Actif 75 / 94 40% 1 26.10.2027 -
Figueiredo Sampaio Correa Actif 83 / 107 40% 5 25.10.2027 -
Tiago Freitas Benfica Actif 106 / 139 40% 1 23.10.2027 -
Mohammed Habib Sarwari Kariobangi Sharks Actif 55 / 93 40% 2 21.10.2027 -
Junior Machis Atletico Venezuela Actif 76 / 71 40% 2 16.10.2027 -
Bahia Criciuma Actif 118 / 119 40% 1 16.10.2027 -
Alejandro Almaraz Nueva Chicago Actif 100 / 126 40% 3 08.10.2027 -
Mpho Khethang AS Police Actif 89 / 92 40% 2 27.09.2027 -
Jofrank Istifanus Nasarawa United Actif 79 / 102 40% 1 23.09.2027 -
Mbekezeli Mbokazi Chicago Fire Actif 136 / 122 40% 1 13.09.2027 -
André Lucas Sampaio Correa Actif 80 / 90 40% 1 13.09.2027 -
João Capucho Benfica Actif 95 / 122 40% 2 12.07.2027 -
Davide Bartesaghi AC Milan Actif 153 / 139 40% 1 12.07.2027 -
Adam Bakoune Ospitaletto Actif 106 / 119 40% 2 08.06.2027 -
Cheveyo Tsawa Club Brugge Actif 113 / 126 40% 1 08.06.2027 -
Pablo Internacional Actif 96 / 94 51% 1 06.06.2027 -
Yussif Saidu Zaragoza Actif 136 / 111 40% 3 03.06.2027 -
Andreas Trimmel Red Bull Salzburg Actif 131 / 131 60% 1 01.06.2027 Approuver
Amar Memić Casa Pia Actif 127 / 128 62% 1 01.06.2027 Approuver
Dion Beljo Standard Liege Actif 131 / 132 66% 1 01.06.2027 Approuver
Christos Mouzakitis Hull City Actif 144 / 141 40% 1 01.06.2027 -
Lewis Morgan SuperSport United Actif 145 / 140 40% 6 28.05.2027 -
Richard Koné Queens Park Rangers Actif 107 / 115 40% 2 27.05.2027 -
Ilias Chair Queens Park Rangers Actif 111 / 134 40% 2 26.05.2027 -
Tom Fellows Southampton Actif 144 / 127 40% 2 25.05.2027 -
Caleb Yirenkyi Coventry City Actif 123 / 133 40% 2 23.05.2027 Plus d'infos
Cian Ashford Cardiff City Actif 109 / 121 40% 2 23.05.2027 -
Alex Lowry Wycombe Wanderers Actif 113 / 125 40% 1 22.05.2027 -
Tatsuhiro Sakamoto Coventry City Actif 135 / 131 40% 1 20.05.2027 -
Ronald Swansea City Actif 143 / 136 40% 1 20.05.2027 -
Ollie Tanner Cardiff City Actif 122 / 120 40% 3 17.05.2027 -
Alex Robertson Cardiff City Actif 137 / 119 40% 1 15.05.2027 -
Ryoya Morishita Blackburn Rovers Actif 117 / 111 40% 2 13.05.2027 -
Josh Smith Accrington Stanley Actif 92 / 73 40% 1 13.05.2027 -
Welington Southampton Actif 118 / 133 40% 1 12.05.2027 -
Ianis Hagi Alanyaspor Actif 136 / 114 40% 1 12.05.2027 -
Leandro Martins Benfica Actif 78 / 83 40% 2 09.05.2027 -
Tyreece Campbell Charlton Athletic Actif 105 / 127 40% 2 09.05.2027 -
Christ Inao Oulaï Fiorentina Actif 130 / 152 40% 1 09.05.2027 -
Isaiah Jones Luton Town Actif 140 / 106 40% 2 07.05.2027 -
Callum O'Hare Sheffield United Actif 149 / 112 40% 1 07.05.2027 -
Daniel Kyerewaa Reading Actif 100 / 124 40% 1 05.05.2027 -
Stanley Mills Oxford United Actif 117 / 111 40% 2 04.05.2027 -
Ethan Williams Peterborough United Actif 122 / 106 40% 1 03.05.2027 -
Jack McGlynn Stoke City Actif 136 / 119 40% 1 02.05.2027 -
Louie Barry Sheffield Wednesday Actif 117 / 141 40% 1 02.05.2027 -
Tshepang Moremi Orlando Pirates Actif 98 / 125 40% 2 01.05.2027 -
Zian Flemming Ipswich Town Actif 133 / 150 40% 1 30.04.2027 -
Riley Owen Trento Actif 89 / 104 40% 1 26.04.2027 -
Jan Bürger Gillingham Actif 114 / 126 40% 1 25.04.2027 -
Santi García Gil Vicente Actif 118 / 130 40% 2 23.04.2027 -
Samu Vitoria Guimaraes Actif 142 / 105 40% 3 23.04.2027 -
Pablo Fernández Leiria Actif 118 / 119 40% 1 22.04.2027 -
Ole Pohlmann Rio Ave Actif 109 / 137 40% 1 22.04.2027 -
André Silva Tondela Actif 121 / 119 40% 4 21.04.2027 Observer
Martín Tejón Maritimo Actif 114 / 125 40% 2 21.04.2027 -
Juninho Pumas UNAM Actif 142 / 119 40% 2 19.04.2027 -
Naïs Djouahra Arouca Actif 110 / 119 40% 1 19.04.2027 -
Matías Gómez Granada Actif 120 / 138 40% 1 18.04.2027 -
Zaïd BafdilI Sporting CP Actif 104 / 84 40% 1 18.04.2027 -
Joel McGregor Swindon Town Actif 106 / 117 40% 1 17.04.2027 -
Derensili Sanches Fernandes Huddersfield Town Actif 128 / 118 40% 2 15.04.2027 -
Simo Maritimo Actif 133 / 96 40% 3 15.04.2027 -
Francisco Moura Lusitânia Lourosa Actif 141 / 134 40% 2 14.04.2027 -
Renato Sanches AVS Actif 117 / 137 40% 2 10.04.2027 -
Luis Quintero Torreense Actif 112 / 117 40% 4 09.04.2027 -
Manu Pozo Torreense Actif 126 / 100 40% 2 09.04.2027 -
Nabil Touaizi Alverca Actif 120 / 113 40% 2 08.04.2027 -
Alfonso Trezza Arouca Actif 133 / 103 40% 1 06.04.2027 -
Makan Aïko Tondela Actif 127 / 100 40% 2 04.04.2027 -
Benny Feirense Actif 115 / 129 40% 1 02.04.2027 -
Lorougnon Gohi Académico de Viseu Actif 112 / 118 40% 3 01.04.2027 -
Cristian Ferreira Académico de Viseu Actif 118 / 113 40% 2 26.03.2027 -
Rafik Guitane Estoril Praia Actif 142 / 128 40% 2 23.03.2027 -
Luís Esteves Atlas Actif 125 / 131 40% 1 23.03.2027 -
Figueiredo Alverca Actif 139 / 131 40% 1 21.03.2027 -
Dinis Pinto Moreirense Actif 117 / 114 40% 1 21.03.2027 -
Emi Rodriguez Leon Actif 119 / 122 40% 1 20.03.2027 -
Jesús Ricardo Angulo Toluca Actif 142 / 142 40% 1 19.03.2027 -
Mduduzi Shabalala Kaizer Chiefs Actif 97 / 96 40% 1 18.03.2027 -
Jordan van der Gaag Leiria Actif 93 / 125 40% 1 30.11.2026 -
Jordan Holsgrove Estoril Praia Actif 113 / 147 40% 1 24.11.2026 -
Jalen Blesa Rio Ave Actif 99 / 109 40% 1 20.11.2026 -
Gustavo Silva Vitoria Guimaraes Actif 111 / 132 40% 2 16.11.2026 -
Caio Alexandre Bahia Actif 138 / 127 40% 1 15.11.2026 -
Negueba Mirassol Actif 122 / 136 40% 1 07.11.2026 -
Rodrigo Ramos Moreirense Actif 102 / 104 40% 1 06.11.2026 -
Lohann Doucet Vitoria Guimaraes Actif 115 / 141 40% 1 04.11.2026 -
William Gomes Porto Actif 139 / 143 40% 2 24.10.2026 -
Jan Virgili Club Brugge Actif 116 / 154 40% 1 23.10.2026 -
João Abreu Porto Actif 97 / 82 40% 1 23.10.2026 -
André Oliveira Porto Actif 86 / 115 40% 1 19.10.2026 -
João Simões Sporting CP Actif 113 / 136 40% 4 18.10.2026 -
Rayan Lucas Alverca Actif 102 / 131 40% 1 18.10.2026 -
Lovro Zvonarek Estrela da Amadora Actif 135 / 128 40% 2 17.10.2026 -
Pedro Bondo Famalicao Actif 134 / 115 40% 1 17.10.2026 -
Joseph Nduquidi Farense Actif 115 / 125 40% 1 15.10.2026 -
Othmane Maamma Watford Actif 119 / 138 40% 1 15.10.2026 -
Mathias De Amorim Famalicao Actif 134 / 145 40% 1 12.10.2026 -
Martim Fernandes Porto Actif 144 / 160 40% 3 10.10.2026 -
Bernardes Benfica Actif 93 / 106 40% 2 09.10.2026 -
Salvador Blopá Casa Pia Actif 111 / 118 40% 1 11.09.2026 -
Gonçalo Sousa Porto Actif 112 / 94 40% 1 07.09.2026 -
Bénie Traoré New York City Actif 117 / 135 40% 1 04.08.2026 -
Jesse Derry Chelsea Actif 83 / 107 40% 1 02.08.2026 -
Gustaf Lagerbielke Braga Actif 141 / 154 40% 1 01.08.2026 -
Vitor Carvalho Braga Actif 144 / 130 40% 1 01.08.2026 -